createdAt,value
2022-11-04T00:05:01.002Z,11.31
2022-11-04T00:10:02.885Z,11.32
2022-11-04T00:15:25.558Z,11.39
2022-11-04T00:20:46.115Z,11.53
2022-11-04T00:26:06.520Z,11.75
2022-11-04T00:31:28.678Z,12.01
2022-11-04T00:36:30.500Z,12.24
2022-11-04T00:41:32.392Z,12.42
2022-11-04T00:46:34.837Z,12.58
2022-11-04T00:51:36.700Z,12.68
2022-11-04T00:56:39.575Z,12.69
2022-11-04T01:01:42.218Z,12.64
2022-11-04T01:06:44.695Z,12.60
2022-11-04T01:11:46.648Z,12.62
2022-11-04T01:16:52.026Z,12.56
2022-11-04T01:21:53.908Z,12.53
2022-11-04T01:26:55.855Z,12.51
2022-11-04T01:31:57.776Z,12.49
2022-11-04T01:36:59.627Z,12.52
2022-11-04T01:42:01.617Z,12.55
2022-11-04T01:47:04.618Z,12.57
2022-11-04T01:52:15.410Z,12.57
2022-11-04T01:57:25.273Z,12.56
2022-11-04T02:02:27.357Z,12.52
2022-11-04T02:07:29.949Z,12.51
2022-11-04T02:12:50.133Z,12.42
2022-11-04T02:18:10.956Z,12.29
2022-11-04T02:23:48.800Z,12.25
2022-11-04T02:29:18.842Z,12.20
2022-11-04T02:34:26.010Z,12.17
2022-11-04T02:39:51.344Z,12.07
2022-11-04T02:45:21.937Z,12.05
2022-11-04T02:50:33.675Z,12.05
2022-11-04T02:55:43.303Z,12.02
2022-11-04T03:00:47.097Z,12.06
2022-11-04T03:05:52.709Z,12.07
2022-11-04T03:10:59.427Z,12.14
2022-11-04T03:16:09.449Z,12.21
2022-11-04T03:21:15.529Z,12.28
2022-11-04T03:26:32.710Z,12.30
2022-11-04T03:31:54.527Z,12.34
2022-11-04T03:36:57.312Z,12.36
2022-11-04T03:42:20.338Z,12.37
2022-11-04T03:47:25.982Z,12.30
2022-11-04T03:52:27.866Z,12.16
2022-11-04T03:57:51.240Z,12.02
2022-11-04T04:03:06.734Z,11.89
2022-11-04T04:08:34.607Z,11.73
2022-11-04T04:13:36.551Z,11.55
2022-11-04T04:18:55.785Z,11.37
2022-11-04T04:24:24.678Z,11.23
2022-11-04T04:29:29.513Z,11.10
2022-11-04T04:34:33.557Z,11.01
2022-11-04T04:40:00.839Z,11.03
2022-11-04T04:45:05.580Z,11.03
2022-11-04T04:50:09.195Z,11.07
2022-11-04T04:55:12.535Z,11.09
2022-11-04T05:00:19.986Z,10.97
2022-11-04T05:05:21.976Z,10.83
2022-11-04T05:10:26.089Z,10.70
2022-11-04T05:15:31.406Z,10.58
2022-11-04T05:20:34.562Z,10.52
2022-11-04T05:25:36.544Z,10.52
2022-11-04T05:30:38.473Z,10.51
2022-11-04T05:35:40.443Z,10.52
2022-11-04T05:40:42.341Z,10.57
2022-11-04T05:45:44.144Z,10.65
2022-11-04T05:50:45.987Z,10.73
2022-11-04T05:55:47.817Z,10.82
2022-11-04T06:00:49.679Z,10.96
2022-11-04T06:05:51.510Z,11.11
2022-11-04T06:10:53.411Z,11.26
2022-11-04T06:15:55.263Z,11.39
2022-11-04T06:21:15.377Z,11.49
2022-11-04T06:26:18.313Z,11.57
2022-11-04T06:31:20.626Z,11.66
2022-11-04T06:36:22.485Z,11.76
2022-11-04T06:41:25.113Z,11.86
2022-11-04T06:46:40.256Z,11.96
2022-11-04T06:51:42.162Z,12.09
2022-11-04T06:56:45.075Z,12.14
2022-11-04T07:01:49.316Z,12.23
2022-11-04T07:06:51.302Z,12.30
2022-11-04T07:11:53.104Z,12.37
2022-11-04T07:16:54.926Z,12.46
2022-11-04T07:21:58.019Z,12.56
2022-11-04T07:32:07.601Z,12.68
2022-11-04T07:37:09.851Z,12.69
2022-11-04T07:42:11.743Z,12.70
2022-11-04T07:47:14.601Z,12.67
2022-11-04T07:52:16.830Z,12.73
2022-11-04T07:57:18.681Z,12.86
2022-11-04T08:02:25.786Z,13.00
2022-11-04T08:07:29.561Z,13.13
2022-11-04T08:12:32.495Z,13.33
2022-11-04T08:17:34.369Z,13.54
2022-11-04T08:22:36.555Z,13.74
2022-11-04T08:27:38.368Z,13.90
2022-11-04T08:32:40.312Z,14.06
2022-11-04T08:37:42.197Z,14.22
2022-11-04T08:42:44.013Z,14.39
2022-11-04T08:47:45.818Z,14.58
2022-11-04T08:52:48.257Z,14.73
2022-11-04T08:57:51.288Z,14.83
2022-11-04T09:02:53.187Z,14.96
2022-11-04T09:07:55.672Z,15.07
2022-11-04T09:12:57.570Z,15.14
2022-11-04T09:17:59.530Z,15.24
2022-11-04T09:23:01.564Z,15.36
2022-11-04T09:28:04.783Z,15.50
2022-11-04T09:33:06.796Z,15.65
2022-11-04T09:38:08.964Z,15.79
2022-11-04T09:43:39.730Z,15.89
2022-11-04T09:48:53.808Z,15.97
2022-11-04T09:54:02.832Z,16.07
2022-11-04T09:59:06.445Z,16.13
2022-11-04T10:04:33.358Z,16.16
2022-11-04T10:09:43.380Z,16.18
2022-11-04T10:14:50.964Z,16.21
2022-11-04T10:20:18.072Z,16.23
2022-11-04T10:25:28.179Z,16.30
2022-11-04T10:30:32.228Z,16.34
2022-11-04T10:35:42.803Z,16.35
2022-11-04T10:40:51.333Z,16.31
2022-11-04T10:46:22.659Z,16.31
2022-11-04T10:51:24.776Z,16.35
2022-11-04T10:56:42.600Z,16.43
2022-11-04T11:01:56.805Z,16.51
2022-11-04T11:07:00.594Z,16.55
2022-11-04T11:12:44.122Z,16.56
2022-11-04T11:17:34.488Z,16.55
2022-11-04T11:22:41.704Z,16.56
2022-11-04T11:27:49.938Z,16.62
2022-11-04T11:33:01.397Z,16.68
2022-11-04T11:38:06.055Z,16.76
2022-11-04T11:43:21.320Z,16.90
2022-11-04T11:48:29.978Z,17.09
2022-11-04T11:53:34.473Z,17.32
2022-11-04T12:09:42.077Z,16.94
2022-11-04T12:15:07.081Z,16.95
2022-11-04T12:21:00.115Z,17.10
2022-11-04T12:26:20.256Z,17.04
2022-11-04T12:31:45.363Z,16.95
2022-11-04T12:37:01.928Z,16.79
2022-11-04T12:42:20.527Z,16.64
2022-11-04T12:47:38.828Z,16.55
2022-11-04T12:52:54.264Z,16.57
2022-11-04T12:58:17.559Z,16.65
2022-11-04T13:03:30.320Z,16.70
2022-11-04T13:08:41.981Z,16.64
2022-11-04T13:13:44.106Z,16.54
2022-11-04T13:18:48.026Z,16.49
2022-11-04T13:23:58.144Z,16.49
2022-11-04T13:29:09.121Z,16.51
2022-11-04T13:34:48.051Z,16.54
2022-11-04T13:39:57.718Z,16.50
2022-11-04T13:45:14.955Z,16.41
2022-11-04T13:50:37.016Z,16.31
2022-11-04T13:55:50.393Z,16.19
2022-11-04T14:01:14.010Z,16.07
2022-11-04T14:06:16.040Z,15.99
2022-11-04T14:11:17.843Z,15.92
2022-11-04T14:16:25.485Z,15.89
2022-11-04T14:21:29.524Z,15.85
2022-11-04T14:26:48.616Z,15.86
2022-11-04T14:31:53.183Z,15.82
2022-11-04T14:37:05.455Z,15.76
2022-11-04T14:42:14.004Z,15.71
2022-11-04T14:47:22.055Z,15.64
2022-11-04T14:52:35.165Z,15.63
2022-11-04T14:57:42.456Z,15.63
2022-11-04T15:02:44.350Z,15.56
2022-11-04T15:07:46.239Z,15.49
2022-11-04T15:12:52.036Z,15.40
2022-11-04T15:18:01.843Z,15.29
2022-11-04T15:23:06.859Z,15.17
2022-11-04T15:28:18.061Z,15.08
2022-11-04T15:33:20.012Z,14.95
2022-11-04T15:38:24.324Z,14.87
2022-11-04T15:43:26.234Z,14.81
2022-11-04T15:48:33.818Z,14.75
2022-11-04T15:53:50.573Z,14.65
2022-11-04T15:58:54.536Z,14.62
2022-11-04T16:04:00.470Z,14.58
2022-11-04T16:09:25.940Z,14.55
2022-11-04T16:14:30.169Z,14.52
2022-11-04T16:19:32.491Z,14.48
2022-11-04T16:24:37.987Z,14.42
2022-11-04T16:29:45.213Z,14.36
2022-11-04T16:34:52.362Z,14.33
2022-11-04T16:39:54.403Z,14.33
2022-11-04T16:45:02.640Z,14.31
2022-11-04T16:50:13.225Z,14.27
2022-11-04T16:55:15.941Z,14.28
2022-11-04T17:00:20.963Z,14.29
2022-11-04T17:05:23.106Z,14.27
2022-11-04T17:10:27.965Z,14.21
2022-11-04T17:15:29.783Z,14.16
2022-11-04T17:20:32.043Z,14.14
2022-11-04T17:25:33.897Z,14.12
2022-11-04T17:30:36.077Z,14.09
2022-11-04T17:35:38.419Z,14.00
2022-11-04T17:40:59.182Z,13.96
2022-11-04T17:46:20.956Z,13.92
2022-11-04T17:51:23.114Z,13.87
2022-11-04T17:56:25.644Z,13.82
2022-11-04T18:01:28.148Z,13.77
2022-11-04T18:06:32.593Z,13.76
2022-11-04T18:11:53.123Z,13.76
2022-11-04T18:16:55.110Z,13.77
2022-11-04T18:21:57.407Z,13.76
2022-11-04T18:26:59.862Z,13.76
2022-11-04T18:32:01.778Z,13.76
2022-11-04T18:37:03.794Z,13.74
2022-11-04T18:42:05.702Z,13.73
2022-11-04T18:47:07.495Z,13.70
2022-11-04T18:52:09.330Z,13.72
2022-11-04T18:57:12.187Z,13.74
2022-11-04T19:02:19.839Z,13.73
2022-11-04T19:07:21.665Z,13.70
2022-11-04T19:12:42.100Z,13.70
2022-11-04T19:17:44.035Z,13.74
2022-11-04T19:22:46.129Z,13.76
2022-11-04T19:28:00.069Z,13.77
2022-11-04T19:33:10.886Z,13.79
2022-11-04T19:38:12.986Z,13.82
2022-11-04T19:43:15.199Z,13.80
2022-11-04T19:48:18.976Z,13.80
2022-11-04T19:53:21.134Z,13.81
2022-11-04T19:58:23.401Z,13.83
2022-11-04T20:03:25.223Z,13.85
2022-11-04T20:08:27.230Z,13.89
2022-11-04T20:13:44.428Z,13.93
2022-11-04T20:18:50.697Z,13.96
2022-11-04T20:23:57.613Z,13.94
2022-11-04T20:29:00.448Z,13.91
2022-11-04T20:34:05.114Z,13.88
2022-11-04T20:39:18.329Z,13.82
2022-11-04T20:44:20.295Z,13.71
2022-11-04T20:49:22.283Z,13.57
2022-11-04T20:54:24.187Z,13.46
2022-11-04T20:59:27.617Z,13.41
2022-11-04T21:04:34.799Z,13.38
2022-11-04T21:09:37.955Z,13.37
2022-11-04T21:14:39.827Z,13.41
2022-11-04T21:19:41.730Z,13.43
2022-11-04T21:24:43.569Z,13.43
2022-11-04T21:29:45.578Z,13.42
2022-11-04T21:34:47.430Z,13.41
2022-11-04T21:39:49.240Z,13.42
2022-11-04T21:44:51.049Z,13.39
2022-11-04T21:49:52.864Z,13.36
2022-11-04T21:54:54.633Z,13.33
2022-11-04T21:59:56.428Z,13.28
2022-11-04T22:04:58.242Z,13.20
2022-11-04T22:10:00.095Z,13.13
2022-11-04T22:15:09.094Z,13.09
2022-11-04T22:20:11.293Z,12.96
2022-11-04T22:25:13.159Z,12.81
2022-11-04T22:30:15.009Z,12.64
2022-11-04T22:35:17.079Z,12.50
2022-11-04T22:40:18.997Z,12.34
2022-11-04T22:45:20.834Z,12.18
2022-11-04T22:50:23.098Z,12.03
2022-11-04T22:55:24.886Z,11.86
2022-11-04T23:00:26.729Z,11.78
2022-11-04T23:05:31.709Z,11.68
2022-11-04T23:10:52.293Z,11.56
2022-11-04T23:16:12.704Z,11.42
2022-11-04T23:21:37.020Z,11.30
2022-11-04T23:26:39.000Z,11.20
2022-11-04T23:31:40.979Z,11.10
2022-11-04T23:37:01.633Z,11.02
2022-11-04T23:42:18.886Z,10.97
2022-11-04T23:47:39.260Z,10.98
2022-11-04T23:52:59.555Z,10.94
2022-11-04T23:58:19.977Z,10.95
